Aérodrome :
LOGIN :

S'inscrire | Disclaimer

   EN    FR    IT 

 










Légende :    VFR   VFR Marginal   IFR   IFR Intensif   IFR Très Intensif
Visi : 
Plafond : 
>= 8 km
>= 3000ft
5 à 8 km
1000 à 3000 ft
1500m à 5 km
500 à 1000 ft
800 à 1500m
200 à 500 ft
< 800m
< 200 ft
Symboles :   Orages  Brouillard  Fortes neiges  Fortes précipitations  Vent > 20 kt
SIGMETs :   Divers  Orages  Givrage  Turbulence  Onde Orograph.  Cendres Volcan.






- Altitude de l'aérodrome : 529 ft
- Code IATA : CHR


LFLX - Chateauroux

DERNIER METAR :
  • 031600Z AUTO 18014KT 9999 -RA BKN016 BKN024 BKN035 07/06 Q0993 TEMPO 21017G30KT 4000 RA BKN012 SCT020TCU

METARs EXPIRÉS :
  • 031530Z AUTO 18015KT 9999 -DZ FEW018 SCT037 BKN050 07/06 Q0994 TEMPO 21017G30KT 4000 RA BKN012 SCT020TCU
  • 031500Z AUTO 18014KT 9999 SCT011 BKN018 BKN037 07/06 Q0994 TEMPO 21017G30KT 4000 RA BKN012 SCT020TCU
  • 031430Z AUTO 18015KT 9999 -RA SCT010 BKN021 BKN034 07/06 Q0995 TEMPO 21017G30KT 4000 RA BKN012 SCT020TCU
  • 031400Z AUTO 18011KT 9999 -RA BKN011/// BKN016/// BKN029/// ///TCU 07/06 Q0996 TEMPO 21017G30KT 4000 RA

TAF TAF LFLX
Valide du 03 à 12h jusqu'au 04 à 18h UTC


031100Z 0312/0418 20015G25KT 9999 BKN006
BECMG 0312/0315 -RA BKN020
TEMPO 0314/0403 21017G30KT 4000 RA BKN012 SCT020TCU
PROB30
TEMPO 0321/0403 20020G45KT BKN008 SCT020CB
BECMG 0403/0405 20012KT 9999 NSW SCT020 SCT050
TEMPO 0413/0418 4000 SHRA SCT020TCU BKN030



MET'MAP, la Météo Aéronautique d'un coup d'oeil ! - Copyright ORBIFLY Décembre 2007 - Disclaimer

ORBIFLY MET'MAP TEAM :

Programmation & Développement : Alexandra Zaïnal
Sur une idée originale de : Baudouin d'Aumeries
Assistance à la programmation : Marc-Olivier Méhu
Soutien technique & logistique : Manuel Goepfert

Contact : metmap@orbifly.com




SOURCES & CREDITS :

   NOAA